Flugplatz Heringsdorf

Prognose für EDAH

vom 20.10. um 00:00 UTC

Zwischen 00:00 UTC und 00:00 UTC

Wind 5 kt aus 60°

Sichtweite 10 km oder mehr

keine signifikanten Wettererscheinungen

keine Wolken

TAF EDAH 201400Z 2015/2024 06005KT CAVOK
Impressum